sensor_id;sensor_type;location;lat;lon;timestamp;pressure;altitude;pressure_sealevel;temperature;humidity
19890;BME280;10107;51.198;6.824;2023-11-21T00:01:47;-21521.56;;;7.68;100.00
19890;BME280;10107;51.198;6.824;2023-11-21T00:05:50;-21521.16;;;7.66;100.00
19890;BME280;10107;51.198;6.824;2023-11-21T00:09:52;-21518.91;;;7.58;100.00
19890;BME280;10107;51.198;6.824;2023-11-21T00:13:56;-21516.63;;;7.49;100.00
19890;BME280;10107;51.198;6.824;2023-11-21T00:17:57;-21515.69;;;7.45;100.00
19890;BME280;10107;51.198;6.824;2023-11-21T00:22:00;-21515.03;;;7.43;100.00
19890;BME280;10107;51.198;6.824;2023-11-21T00:26:02;-21514.50;;;7.41;100.00
19890;BME280;10107;51.198;6.824;2023-11-21T00:30:05;-21515.84;;;7.46;100.00
19890;BME280;10107;51.198;6.824;2023-11-21T00:34:07;-21517.16;;;7.51;100.00
19890;BME280;10107;51.198;6.824;2023-11-21T00:38:11;-21518.75;;;7.57;100.00
19890;BME280;10107;51.198;6.824;2023-11-21T00:42:12;-21520.50;;;7.64;100.00
19890;BME280;10107;51.198;6.824;2023-11-21T00:46:14;-21521.97;;;7.69;100.00
19890;BME280;10107;51.198;6.824;2023-11-21T00:50:16;-21523.28;;;7.74;100.00
19890;BME280;10107;51.198;6.824;2023-11-21T00:54:18;-21524.88;;;7.81;100.00
19890;BME280;10107;51.198;6.824;2023-11-21T00:58:20;-21525.69;;;7.84;100.00
19890;BME280;10107;51.198;6.824;2023-11-21T01:02:22;-21526.22;;;7.86;100.00
19890;BME280;10107;51.198;6.824;2023-11-21T01:06:23;-21526.34;;;7.86;100.00
19890;BME280;10107;51.198;6.824;2023-11-21T01:10:26;-21527.00;;;7.89;100.00
19890;BME280;10107;51.198;6.824;2023-11-21T01:14:28;-21526.88;;;7.88;100.00
19890;BME280;10107;51.198;6.824;2023-11-21T01:18:31;-21525.69;;;7.84;100.00
19890;BME280;10107;51.198;6.824;2023-11-21T01:22:33;-21523.03;;;7.73;100.00
19890;BME280;10107;51.198;6.824;2023-11-21T01:26:36;-21517.84;;;7.53;100.00
19890;BME280;10107;51.198;6.824;2023-11-21T01:30:38;-21511.56;;;7.29;100.00
19890;BME280;10107;51.198;6.824;2023-11-21T01:34:39;-21506.91;;;7.11;100.00
19890;BME280;10107;51.198;6.824;2023-11-21T01:38:41;-21504.13;;;7.01;100.00
19890;BME280;10107;51.198;6.824;2023-11-21T01:42:44;-21503.97;;;7.00;100.00
19890;BME280;10107;51.198;6.824;2023-11-21T01:46:47;-21504.38;;;7.02;100.00
19890;BME280;10107;51.198;6.824;2023-11-21T01:50:49;-21505.44;;;7.06;100.00
19890;BME280;10107;51.198;6.824;2023-11-21T01:54:52;-21506.78;;;7.11;100.00
19890;BME280;10107;51.198;6.824;2023-11-21T01:58:55;-21508.09;;;7.16;100.00
19890;BME280;10107;51.198;6.824;2023-11-21T02:02:57;-21509.03;;;7.20;100.00
19890;BME280;10107;51.198;6.824;2023-11-21T02:07:00;-21510.09;;;7.24;100.00
19890;BME280;10107;51.198;6.824;2023-11-21T02:11:01;-21510.09;;;7.24;100.00
19890;BME280;10107;51.198;6.824;2023-11-21T02:15:06;-21510.25;;;7.24;100.00
19890;BME280;10107;51.198;6.824;2023-11-21T02:19:18;-21510.25;;;7.24;100.00
19890;BME280;10107;51.198;6.824;2023-11-21T02:23:21;-21510.50;;;7.25;100.00
19890;BME280;10107;51.198;6.824;2023-11-21T02:27:24;-21511.84;;;7.30;100.00
19890;BME280;10107;51.198;6.824;2023-11-21T02:31:27;-21512.91;;;7.34;100.00
19890;BME280;10107;51.198;6.824;2023-11-21T02:35:30;-21513.44;;;7.37;100.00
19890;BME280;10107;51.198;6.824;2023-11-21T02:39:33;-21513.97;;;7.39;100.00
19890;BME280;10107;51.198;6.824;2023-11-21T02:43:35;-21513.84;;;7.38;100.00
19890;BME280;10107;51.198;6.824;2023-11-21T02:47:39;-21513.97;;;7.39;100.00
19890;BME280;10107;51.198;6.824;2023-11-21T02:51:40;-21514.22;;;7.40;100.00
19890;BME280;10107;51.198;6.824;2023-11-21T02:55:43;-21514.78;;;7.42;100.00
19890;BME280;10107;51.198;6.824;2023-11-21T02:59:45;-21515.31;;;7.44;100.00
19890;BME280;10107;51.198;6.824;2023-11-21T03:03:46;-21515.84;;;7.46;100.00
19890;BME280;10107;51.198;6.824;2023-11-21T03:07:51;-21515.97;;;7.46;100.00
19890;BME280;10107;51.198;6.824;2023-11-21T03:11:54;-21516.63;;;7.49;100.00
19890;BME280;10107;51.198;6.824;2023-11-21T03:15:56;-21516.91;;;7.50;100.00
19890;BME280;10107;51.198;6.824;2023-11-21T03:19:58;-21517.16;;;7.51;100.00
19890;BME280;10107;51.198;6.824;2023-11-21T03:24:00;-21517.56;;;7.52;100.00
19890;BME280;10107;51.198;6.824;2023-11-21T03:28:03;-21517.44;;;7.52;100.00
19890;BME280;10107;51.198;6.824;2023-11-21T03:32:05;-21517.03;;;7.50;100.00
19890;BME280;10107;51.198;6.824;2023-11-21T03:36:08;-21517.03;;;7.50;100.00
19890;BME280;10107;51.198;6.824;2023-11-21T03:40:11;-21516.63;;;7.49;100.00
19890;BME280;10107;51.198;6.824;2023-11-21T03:44:14;-21516.50;;;7.48;100.00
19890;BME280;10107;51.198;6.824;2023-11-21T03:48:16;-21516.50;;;7.48;100.00
19890;BME280;10107;51.198;6.824;2023-11-21T03:52:17;-21516.22;;;7.47;100.00
19890;BME280;10107;51.198;6.824;2023-11-21T03:56:19;-21515.84;;;7.46;100.00
19890;BME280;10107;51.198;6.824;2023-11-21T04:00:23;-21515.84;;;7.46;100.00
19890;BME280;10107;51.198;6.824;2023-11-21T04:04:26;-21515.56;;;7.45;100.00
19890;BME280;10107;51.198;6.824;2023-11-21T04:08:27;-21515.69;;;7.45;100.00
19890;BME280;10107;51.198;6.824;2023-11-21T04:12:29;-21515.44;;;7.44;100.00
19890;BME280;10107;51.198;6.824;2023-11-21T04:16:32;-21514.63;;;7.41;100.00
19890;BME280;10107;51.198;6.824;2023-11-21T04:20:33;-21514.22;;;7.40;100.00
19890;BME280;10107;51.198;6.824;2023-11-21T04:24:35;-21513.44;;;7.37;100.00
19890;BME280;10107;51.198;6.824;2023-11-21T04:28:37;-21512.91;;;7.34;100.00
19890;BME280;10107;51.198;6.824;2023-11-21T04:32:40;-21511.84;;;7.30;100.00
19890;BME280;10107;51.198;6.824;2023-11-21T04:36:42;-21510.50;;;7.25;100.00
19890;BME280;10107;51.198;6.824;2023-11-21T04:40:43;-21509.56;;;7.22;100.00
19890;BME280;10107;51.198;6.824;2023-11-21T04:44:45;-21509.31;;;7.21;100.00
19890;BME280;10107;51.198;6.824;2023-11-21T04:48:48;-21509.44;;;7.21;100.00
19890;BME280;10107;51.198;6.824;2023-11-21T04:52:49;-21509.03;;;7.20;100.00
19890;BME280;10107;51.198;6.824;2023-11-21T04:56:51;-21508.09;;;7.16;100.00
19890;BME280;10107;51.198;6.824;2023-11-21T05:00:52;-21507.84;;;7.15;100.00
19890;BME280;10107;51.198;6.824;2023-11-21T05:04:55;-21507.03;;;7.12;100.00
19890;BME280;10107;51.198;6.824;2023-11-21T05:08:57;-21506.38;;;7.09;100.00
19890;BME280;10107;51.198;6.824;2023-11-21T05:12:59;-21505.97;;;7.08;100.00
19890;BME280;10107;51.198;6.824;2023-11-21T05:17:00;-21507.44;;;7.13;100.00
19890;BME280;10107;51.198;6.824;2023-11-21T05:21:04;-21508.66;;;7.18;100.00
19890;BME280;10107;51.198;6.824;2023-11-21T05:25:06;-21509.31;;;7.21;100.00
19890;BME280;10107;51.198;6.824;2023-11-21T05:29:08;-21509.84;;;7.23;100.00
19890;BME280;10107;51.198;6.824;2023-11-21T05:33:11;-21510.50;;;7.25;100.00
19890;BME280;10107;51.198;6.824;2023-11-21T05:37:14;-21511.44;;;7.29;100.00
19890;BME280;10107;51.198;6.824;2023-11-21T05:41:15;-21511.97;;;7.31;100.00
19890;BME280;10107;51.198;6.824;2023-11-21T05:45:17;-21512.09;;;7.31;100.00
19890;BME280;10107;51.198;6.824;2023-11-21T05:49:19;-21511.84;;;7.30;100.00
19890;BME280;10107;51.198;6.824;2023-11-21T05:53:23;-21510.63;;;7.26;100.00
19890;BME280;10107;51.198;6.824;2023-11-21T05:57:25;-21510.63;;;7.26;100.00
19890;BME280;10107;51.198;6.824;2023-11-21T06:01:26;-21510.38;;;7.25;100.00
19890;BME280;10107;51.198;6.824;2023-11-21T06:05:29;-21510.78;;;7.26;100.00
19890;BME280;10107;51.198;6.824;2023-11-21T06:09:33;-21511.44;;;7.29;100.00
19890;BME280;10107;51.198;6.824;2023-11-21T06:13:35;-21511.72;;;7.30;100.00
19890;BME280;10107;51.198;6.824;2023-11-21T06:17:37;-21512.38;;;7.32;100.00
19890;BME280;10107;51.198;6.824;2023-11-21T06:21:39;-21513.56;;;7.37;100.00
19890;BME280;10107;51.198;6.824;2023-11-21T06:25:43;-21515.44;;;7.44;100.00
19890;BME280;10107;51.198;6.824;2023-11-21T06:29:44;-21516.22;;;7.47;100.00
19890;BME280;10107;51.198;6.824;2023-11-21T06:33:47;-21517.69;;;7.53;100.00
19890;BME280;10107;51.198;6.824;2023-11-21T06:37:49;-21518.22;;;7.55;100.00
19890;BME280;10107;51.198;6.824;2023-11-21T06:41:52;-21519.28;;;7.59;100.00
19890;BME280;10107;51.198;6.824;2023-11-21T06:45:54;-21519.81;;;7.61;100.00
19890;BME280;10107;51.198;6.824;2023-11-21T06:49:56;-21520.88;;;7.65;100.00
19890;BME280;10107;51.198;6.824;2023-11-21T06:53:58;-21521.44;;;7.67;100.00
19890;BME280;10107;51.198;6.824;2023-11-21T06:58:01;-21522.22;;;7.70;100.00
19890;BME280;10107;51.198;6.824;2023-11-21T07:02:03;-21522.63;;;7.72;100.00
19890;BME280;10107;51.198;6.824;2023-11-21T07:06:07;-21523.56;;;7.76;100.00
19890;BME280;10107;51.198;6.824;2023-11-21T07:10:09;-21523.94;;;7.77;100.00
19890;BME280;10107;51.198;6.824;2023-11-21T07:14:12;-21524.47;;;7.79;100.00
19890;BME280;10107;51.198;6.824;2023-11-21T07:18:14;-21525.00;;;7.81;100.00
19890;BME280;10107;51.198;6.824;2023-11-21T07:22:15;-21525.41;;;7.83;100.00
19890;BME280;10107;51.198;6.824;2023-11-21T07:26:21;-21525.53;;;7.83;100.00
19890;BME280;10107;51.198;6.824;2023-11-21T07:30:24;-21526.88;;;7.88;100.00
19890;BME280;10107;51.198;6.824;2023-11-21T07:34:26;-21528.47;;;7.94;100.00
19890;BME280;10107;51.198;6.824;2023-11-21T07:38:27;-21529.81;;;8.00;100.00
19890;BME280;10107;51.198;6.824;2023-11-21T07:42:29;-21530.19;;;8.01;100.00
19890;BME280;10107;51.198;6.824;2023-11-21T07:46:32;-21531.00;;;8.04;100.00
19890;BME280;10107;51.198;6.824;2023-11-21T07:50:33;-21531.78;;;8.07;100.00
19890;BME280;10107;51.198;6.824;2023-11-21T07:54:35;-21533.00;;;8.12;100.00
19890;BME280;10107;51.198;6.824;2023-11-21T07:58:37;-21534.47;;;8.18;100.00
19890;BME280;10107;51.198;6.824;2023-11-21T08:02:40;-21535.25;;;8.21;100.00
19890;BME280;10107;51.198;6.824;2023-11-21T08:06:42;-21538.19;;;8.32;100.00
19890;BME280;10107;51.198;6.824;2023-11-21T08:10:44;-21540.97;;;8.43;100.00
19890;BME280;10107;51.198;6.824;2023-11-21T08:14:56;-21542.16;;;8.47;100.00
19890;BME280;10107;51.198;6.824;2023-11-21T08:18:59;-21541.78;;;8.46;100.00
19890;BME280;10107;51.198;6.824;2023-11-21T08:23:01;-21542.69;;;8.49;100.00
19890;BME280;10107;51.198;6.824;2023-11-21T08:27:03;-21545.22;;;8.59;100.00
19890;BME280;10107;51.198;6.824;2023-11-21T08:31:05;-21546.69;;;8.65;100.00
19890;BME280;10107;51.198;6.824;2023-11-21T08:35:08;-21547.88;;;8.69;100.00
19890;BME280;10107;51.198;6.824;2023-11-21T08:39:10;-21548.94;;;8.74;100.00
19890;BME280;10107;51.198;6.824;2023-11-21T08:43:13;-21552.78;;;8.88;100.00
19890;BME280;10107;51.198;6.824;2023-11-21T08:47:16;-21557.44;;;9.06;100.00
19890;BME280;10107;51.198;6.824;2023-11-21T08:51:20;-21563.94;;;9.31;100.00
19890;BME280;10107;51.198;6.824;2023-11-21T08:55:22;-21564.47;;;9.34;100.00
19890;BME280;10107;51.198;6.824;2023-11-21T08:59:23;-21561.56;;;9.22;100.00
19890;BME280;10107;51.198;6.824;2023-11-21T09:03:25;-21559.44;;;9.14;100.00
19890;BME280;10107;51.198;6.824;2023-11-21T09:07:28;-21558.63;;;9.11;100.00
19890;BME280;10107;51.198;6.824;2023-11-21T09:11:30;-21559.44;;;9.14;100.00
19890;BME280;10107;51.198;6.824;2023-11-21T09:15:33;-21560.09;;;9.17;100.00
19890;BME280;10107;51.198;6.824;2023-11-21T09:19:35;-21560.75;;;9.19;100.00
19890;BME280;10107;51.198;6.824;2023-11-21T09:23:38;-21562.09;;;9.24;100.00
19890;BME280;10107;51.198;6.824;2023-11-21T09:27:39;-21565.53;;;9.38;100.00
19890;BME280;10107;51.198;6.824;2023-11-21T09:31:41;-21568.06;;;9.47;100.00
19890;BME280;10107;51.198;6.824;2023-11-21T09:35:44;-21570.31;;;9.56;100.00
19890;BME280;10107;51.198;6.824;2023-11-21T09:39:47;-21571.13;;;9.59;100.00
19890;BME280;10107;51.198;6.824;2023-11-21T09:43:52;-21572.72;;;9.65;100.00
19890;BME280;10107;51.198;6.824;2023-11-21T09:47:56;-21571.91;;;9.62;100.00
19890;BME280;10107;51.198;6.824;2023-11-21T09:51:58;-21570.31;;;9.56;100.00
19890;BME280;10107;51.198;6.824;2023-11-21T09:56:06;-21569.38;;;9.52;100.00
19890;BME280;10107;51.198;6.824;2023-11-21T10:00:10;-21569.66;;;9.54;100.00
19890;BME280;10107;51.198;6.824;2023-11-21T10:04:13;-21570.19;;;9.56;100.00
19890;BME280;10107;51.198;6.824;2023-11-21T10:08:14;-21572.03;;;9.63;100.00
19890;BME280;10107;51.198;6.824;2023-11-21T10:12:18;-21573.09;;;9.67;100.00
19890;BME280;10107;51.198;6.824;2023-11-21T10:16:22;-21572.72;;;9.65;100.00
19890;BME280;10107;51.198;6.824;2023-11-21T10:20:27;-21572.31;;;9.64;100.00
19890;BME280;10107;51.198;6.824;2023-11-21T10:24:29;-21572.19;;;9.63;100.00
19890;BME280;10107;51.198;6.824;2023-11-21T10:28:36;-21572.72;;;9.65;100.00
19890;BME280;10107;51.198;6.824;2023-11-21T10:32:39;-21573.50;;;9.68;100.00
19890;BME280;10107;51.198;6.824;2023-11-21T10:36:41;-21573.91;;;9.70;100.00
19890;BME280;10107;51.198;6.824;2023-11-21T10:40:43;-21574.56;;;9.73;100.00
19890;BME280;10107;51.198;6.824;2023-11-21T10:44:47;-21575.34;;;9.76;100.00
19890;BME280;10107;51.198;6.824;2023-11-21T10:48:52;-21575.09;;;9.75;100.00
19890;BME280;10107;51.198;6.824;2023-11-21T10:52:54;-21574.56;;;9.73;100.00
19890;BME280;10107;51.198;6.824;2023-11-21T10:56:57;-21575.75;;;9.77;100.00
19890;BME280;10107;51.198;6.824;2023-11-21T11:01:02;-21578.28;;;9.87;100.00
19890;BME280;10107;51.198;6.824;2023-11-21T11:05:06;-21577.88;;;9.85;100.00
19890;BME280;10107;51.198;6.824;2023-11-21T11:09:13;-21574.81;;;9.74;100.00
19890;BME280;10107;51.198;6.824;2023-11-21T11:13:16;-21572.03;;;9.63;100.00
19890;BME280;10107;51.198;6.824;2023-11-21T11:17:20;-21570.44;;;9.57;100.00
19890;BME280;10107;51.198;6.824;2023-11-21T11:21:30;-21569.25;;;9.52;100.00
19890;BME280;10107;51.198;6.824;2023-11-21T11:26:01;-21569.00;;;9.51;100.00
19890;BME280;10107;51.198;6.824;2023-11-21T11:30:14;-21570.06;;;9.55;100.00
19890;BME280;10107;51.198;6.824;2023-11-21T11:34:23;-21570.19;;;9.56;100.00
19890;BME280;10107;51.198;6.824;2023-11-21T11:38:31;-21568.59;;;9.49;100.00
19890;BME280;10107;51.198;6.824;2023-11-21T11:42:34;-21569.91;;;9.55;100.00
19890;BME280;10107;51.198;6.824;2023-11-21T11:46:43;-21571.91;;;9.62;100.00
19890;BME280;10107;51.198;6.824;2023-11-21T11:51:04;-21577.63;;;9.84;100.00
19890;BME280;10107;51.198;6.824;2023-11-21T11:55:07;-21581.72;;;10.00;100.00
19890;BME280;10107;51.198;6.824;2023-11-21T11:59:10;-21587.41;;;10.22;100.00
19890;BME280;10107;51.198;6.824;2023-11-21T12:03:13;-21598.28;;;10.64;100.00
19890;BME280;10107;51.198;6.824;2023-11-21T12:07:16;-21609.94;;;11.09;100.00
19890;BME280;10107;51.198;6.824;2023-11-21T12:11:18;-21616.44;;;11.35;100.00
19890;BME280;10107;51.198;6.824;2023-11-21T12:15:20;-21610.88;;;11.13;100.00
19890;BME280;10107;51.198;6.824;2023-11-21T12:19:22;-21612.72;;;11.20;100.00
19890;BME280;10107;51.198;6.824;2023-11-21T12:23:26;-21611.25;;;11.15;100.00
19890;BME280;10107;51.198;6.824;2023-11-21T12:27:28;-21610.59;;;11.12;100.00
19890;BME280;10107;51.198;6.824;2023-11-21T12:31:29;-21610.75;;;11.13;100.00
19890;BME280;10107;51.198;6.824;2023-11-21T12:35:33;-21609.41;;;11.07;100.00
19890;BME280;10107;51.198;6.824;2023-11-21T12:39:36;-21608.34;;;11.03;100.00
19890;BME280;10107;51.198;6.824;2023-11-21T12:43:38;-21610.88;;;11.13;100.00
19890;BME280;10107;51.198;6.824;2023-11-21T12:47:41;-21613.53;;;11.23;100.00
19890;BME280;10107;51.198;6.824;2023-11-21T12:51:44;-21612.31;;;11.19;100.00
19890;BME280;10107;51.198;6.824;2023-11-21T12:55:47;-21611.13;;;11.14;100.00
19890;BME280;10107;51.198;6.824;2023-11-21T12:59:51;-21607.56;;;11.00;100.00
19890;BME280;10107;51.198;6.824;2023-11-21T13:03:54;-21606.91;;;10.98;100.00
19890;BME280;10107;51.198;6.824;2023-11-21T13:08:01;-21605.31;;;10.92;100.00
19890;BME280;10107;51.198;6.824;2023-11-21T13:12:06;-21602.78;;;10.82;100.00
19890;BME280;10107;51.198;6.824;2023-11-21T13:16:09;-21599.75;;;10.70;100.00
19890;BME280;10107;51.198;6.824;2023-11-21T13:20:12;-21599.22;;;10.68;100.00
19890;BME280;10107;51.198;6.824;2023-11-21T13:24:16;-21598.56;;;10.65;100.00
19890;BME280;10107;51.198;6.824;2023-11-21T13:28:19;-21595.63;;;10.54;100.00
19890;BME280;10107;51.198;6.824;2023-11-21T13:32:21;-21594.59;;;10.50;100.00
19890;BME280;10107;51.198;6.824;2023-11-21T13:36:23;-21593.53;;;10.46;100.00
19890;BME280;10107;51.198;6.824;2023-11-21T13:40:26;-21592.88;;;10.43;100.00
19890;BME280;10107;51.198;6.824;2023-11-21T13:44:29;-21593.13;;;10.44;100.00
19890;BME280;10107;51.198;6.824;2023-11-21T13:48:38;-21594.59;;;10.50;100.00
19890;BME280;10107;51.198;6.824;2023-11-21T13:52:43;-21594.84;;;10.51;100.00
19890;BME280;10107;51.198;6.824;2023-11-21T13:56:46;-21595.78;;;10.55;100.00
19890;BME280;10107;51.198;6.824;2023-11-21T14:00:50;-21596.03;;;10.56;100.00
19890;BME280;10107;51.198;6.824;2023-11-21T14:04:56;-21593.78;;;10.47;100.00
19890;BME280;10107;51.198;6.824;2023-11-21T14:09:01;-21590.22;;;10.33;100.00
19890;BME280;10107;51.198;6.824;2023-11-21T14:13:07;-21586.88;;;10.20;100.00
19890;BME280;10107;51.198;6.824;2023-11-21T14:17:11;-21582.13;;;10.02;100.00
19890;BME280;10107;51.198;6.824;2023-11-21T14:21:13;-21578.69;;;9.88;100.00
19890;BME280;10107;51.198;6.824;2023-11-21T14:25:15;-21574.56;;;9.73;100.00
19890;BME280;10107;51.198;6.824;2023-11-21T14:29:18;-21571.91;;;9.62;100.00
19890;BME280;10107;51.198;6.824;2023-11-21T14:33:22;-21569.53;;;9.53;100.00
19890;BME280;10107;51.198;6.824;2023-11-21T14:37:23;-21567.41;;;9.45;100.00
19890;BME280;10107;51.198;6.824;2023-11-21T14:41:25;-21565.28;;;9.37;100.00
19890;BME280;10107;51.198;6.824;2023-11-21T14:45:28;-21564.34;;;9.33;100.00
19890;BME280;10107;51.198;6.824;2023-11-21T14:49:31;-21564.09;;;9.32;100.00
19890;BME280;10107;51.198;6.824;2023-11-21T14:53:45;-21563.03;;;9.28;100.00
19890;BME280;10107;51.198;6.824;2023-11-21T14:57:53;-21561.81;;;9.23;100.00
19890;BME280;10107;51.198;6.824;2023-11-21T15:01:55;-21560.63;;;9.19;100.00
19890;BME280;10107;51.198;6.824;2023-11-21T15:05:58;-21559.16;;;9.13;100.00
19890;BME280;10107;51.198;6.824;2023-11-21T15:10:10;-21558.50;;;9.10;100.00
19890;BME280;10107;51.198;6.824;2023-11-21T15:14:15;-21557.84;;;9.08;100.00
19890;BME280;10107;51.198;6.824;2023-11-21T15:18:22;-21556.78;;;9.04;100.00
19890;BME280;10107;51.198;6.824;2023-11-21T15:22:26;-21556.13;;;9.01;100.00
19890;BME280;10107;51.198;6.824;2023-11-21T15:26:29;-21555.59;;;8.99;100.00
19890;BME280;10107;51.198;6.824;2023-11-21T15:30:31;-21554.13;;;8.94;100.00
19890;BME280;10107;51.198;6.824;2023-11-21T15:34:33;-21554.13;;;8.94;100.00
19890;BME280;10107;51.198;6.824;2023-11-21T15:38:37;-21553.84;;;8.92;100.00
19890;BME280;10107;51.198;6.824;2023-11-21T15:42:39;-21553.06;;;8.89;100.00
19890;BME280;10107;51.198;6.824;2023-11-21T15:46:40;-21552.66;;;8.88;100.00
19890;BME280;10107;51.198;6.824;2023-11-21T15:50:42;-21552.25;;;8.86;100.00
19890;BME280;10107;51.198;6.824;2023-11-21T15:54:45;-21552.78;;;8.88;100.00
19890;BME280;10107;51.198;6.824;2023-11-21T15:58:47;-21552.00;;;8.85;100.00
19890;BME280;10107;51.198;6.824;2023-11-21T16:02:48;-21550.66;;;8.80;100.00
19890;BME280;10107;51.198;6.824;2023-11-21T16:06:50;-21549.75;;;8.77;100.00
19890;BME280;10107;51.198;6.824;2023-11-21T16:10:54;-21549.22;;;8.75;100.00
19890;BME280;10107;51.198;6.824;2023-11-21T16:14:55;-21547.09;;;8.66;100.00
19890;BME280;10107;51.198;6.824;2023-11-21T16:18:57;-21546.28;;;8.63;100.00
19890;BME280;10107;51.198;6.824;2023-11-21T16:22:58;-21545.63;;;8.61;100.00
19890;BME280;10107;51.198;6.824;2023-11-21T16:27:02;-21545.75;;;8.61;100.00
19890;BME280;10107;51.198;6.824;2023-11-21T16:31:04;-21545.09;;;8.59;100.00
19890;BME280;10107;51.198;6.824;2023-11-21T16:35:06;-21543.63;;;8.53;100.00
19890;BME280;10107;51.198;6.824;2023-11-21T16:39:10;-21542.16;;;8.47;100.00
19890;BME280;10107;51.198;6.824;2023-11-21T16:43:14;-21541.38;;;8.44;100.00
19890;BME280;10107;51.198;6.824;2023-11-21T16:47:15;-21540.72;;;8.42;100.00
19890;BME280;10107;51.198;6.824;2023-11-21T16:51:17;-21538.44;;;8.33;100.00
19890;BME280;10107;51.198;6.824;2023-11-21T16:55:19;-21536.59;;;8.26;100.00
19890;BME280;10107;51.198;6.824;2023-11-21T16:59:22;-21536.19;;;8.24;100.00
19890;BME280;10107;51.198;6.824;2023-11-21T17:03:23;-21535.53;;;8.22;100.00
19890;BME280;10107;51.198;6.824;2023-11-21T17:07:26;-21534.47;;;8.18;100.00
19890;BME280;10107;51.198;6.824;2023-11-21T17:11:29;-21533.53;;;8.14;100.00
19890;BME280;10107;51.198;6.824;2023-11-21T17:15:32;-21533.00;;;8.12;100.00
19890;BME280;10107;51.198;6.824;2023-11-21T17:19:34;-21531.66;;;8.07;100.00
19890;BME280;10107;51.198;6.824;2023-11-21T17:23:36;-21530.72;;;8.03;100.00
19890;BME280;10107;51.198;6.824;2023-11-21T17:27:37;-21529.41;;;7.98;100.00
19890;BME280;10107;51.198;6.824;2023-11-21T17:31:40;-21525.28;;;7.82;100.00
19890;BME280;10107;51.198;6.824;2023-11-21T17:35:42;-21522.63;;;7.72;100.00
19890;BME280;10107;51.198;6.824;2023-11-21T17:39:44;-21520.22;;;7.63;100.00
19890;BME280;10107;51.198;6.824;2023-11-21T17:43:46;-21517.16;;;7.51;100.00
19890;BME280;10107;51.198;6.824;2023-11-21T17:47:49;-21514.78;;;7.42;100.00
19890;BME280;10107;51.198;6.824;2023-11-21T17:51:50;-21512.50;;;7.33;100.00
19890;BME280;10107;51.198;6.824;2023-11-21T17:55:53;-21510.50;;;7.25;100.00
19890;BME280;10107;51.198;6.824;2023-11-21T17:59:55;-21509.44;;;7.21;100.00
19890;BME280;10107;51.198;6.824;2023-11-21T18:03:58;-21507.56;;;7.14;100.00
19890;BME280;10107;51.198;6.824;2023-11-21T18:07:59;-21503.84;;;7.00;100.00
19890;BME280;10107;51.198;6.824;2023-11-21T18:12:01;-21501.84;;;6.92;100.00
19890;BME280;10107;51.198;6.824;2023-11-21T18:16:03;-21501.84;;;6.92;100.00
19890;BME280;10107;51.198;6.824;2023-11-21T18:20:08;-21500.91;;;6.88;100.00
19890;BME280;10107;51.198;6.824;2023-11-21T18:24:10;-21500.78;;;6.88;100.00
19890;BME280;10107;51.198;6.824;2023-11-21T18:28:12;-21501.31;;;6.90;100.00
19890;BME280;10107;51.198;6.824;2023-11-21T18:32:14;-21499.84;;;6.84;100.00
19890;BME280;10107;51.198;6.824;2023-11-21T18:36:17;-21498.25;;;6.78;100.00
19890;BME280;10107;51.198;6.824;2023-11-21T18:40:19;-21497.19;;;6.74;100.00
19890;BME280;10107;51.198;6.824;2023-11-21T18:44:21;-21497.06;;;6.73;100.00
19890;BME280;10107;51.198;6.824;2023-11-21T18:48:23;-21496.38;;;6.71;100.00
19890;BME280;10107;51.198;6.824;2023-11-21T18:52:27;-21494.66;;;6.64;100.00
19890;BME280;10107;51.198;6.824;2023-11-21T18:56:28;-21493.19;;;6.59;100.00
19890;BME280;10107;51.198;6.824;2023-11-21T19:00:31;-21491.19;;;6.51;100.00
19890;BME280;10107;51.198;6.824;2023-11-21T19:04:32;-21490.66;;;6.49;100.00
19890;BME280;10107;51.198;6.824;2023-11-21T19:08:35;-21490.25;;;6.47;100.00
19890;BME280;10107;51.198;6.824;2023-11-21T19:12:37;-21488.00;;;6.39;100.00
19890;BME280;10107;51.198;6.824;2023-11-21T19:16:39;-21485.31;;;6.28;100.00
19890;BME280;10107;51.198;6.824;2023-11-21T19:20:41;-21482.78;;;6.19;100.00
19890;BME280;10107;51.198;6.824;2023-11-21T19:24:44;-21482.25;;;6.17;100.00
19890;BME280;10107;51.198;6.824;2023-11-21T19:28:46;-21482.53;;;6.18;100.00
19890;BME280;10107;51.198;6.824;2023-11-21T19:32:47;-21482.66;;;6.18;100.00
19890;BME280;10107;51.198;6.824;2023-11-21T19:36:49;-21483.06;;;6.20;100.00
19890;BME280;10107;51.198;6.824;2023-11-21T19:40:53;-21483.06;;;6.20;100.00
19890;BME280;10107;51.198;6.824;2023-11-21T19:44:54;-21483.31;;;6.21;100.00
19890;BME280;10107;51.198;6.824;2023-11-21T19:48:56;-21480.66;;;6.10;100.00
19890;BME280;10107;51.198;6.824;2023-11-21T19:52:57;-21477.47;;;5.98;100.00
19890;BME280;10107;51.198;6.824;2023-11-21T19:57:01;-21474.78;;;5.88;100.00
19890;BME280;10107;51.198;6.824;2023-11-21T20:01:04;-21472.25;;;5.78;100.00
19890;BME280;10107;51.198;6.824;2023-11-21T20:05:07;-21470.38;;;5.71;100.00
19890;BME280;10107;51.198;6.824;2023-11-21T20:09:09;-21469.03;;;5.66;100.00
19890;BME280;10107;51.198;6.824;2023-11-21T20:13:13;-21468.38;;;5.63;100.00
19890;BME280;10107;51.198;6.824;2023-11-21T20:17:14;-21468.50;;;5.64;100.00
19890;BME280;10107;51.198;6.824;2023-11-21T20:21:19;-21467.84;;;5.61;100.00
19890;BME280;10107;51.198;6.824;2023-11-21T20:25:21;-21468.38;;;5.63;100.00
19890;BME280;10107;51.198;6.824;2023-11-21T20:29:24;-21468.13;;;5.62;100.00
19890;BME280;10107;51.198;6.824;2023-11-21T20:33:26;-21466.78;;;5.57;100.00
19890;BME280;10107;51.198;6.824;2023-11-21T20:37:27;-21466.78;;;5.57;100.00
19890;BME280;10107;51.198;6.824;2023-11-21T20:41:29;-21467.19;;;5.59;100.00
19890;BME280;10107;51.198;6.824;2023-11-21T20:45:32;-21468.50;;;5.64;100.00
19890;BME280;10107;51.198;6.824;2023-11-21T20:49:36;-21469.03;;;5.66;100.00
19890;BME280;10107;51.198;6.824;2023-11-21T20:53:38;-21469.97;;;5.69;100.00
19890;BME280;10107;51.198;6.824;2023-11-21T20:57:39;-21470.91;;;5.73;100.00
19890;BME280;10107;51.198;6.824;2023-11-21T21:01:42;-21471.31;;;5.74;100.00
19890;BME280;10107;51.198;6.824;2023-11-21T21:05:44;-21470.66;;;5.72;100.00